createdAt,value
2023-02-22T00:01:21.876Z,97580.63
2023-02-22T00:03:51.910Z,97578.69
2023-02-22T00:06:19.708Z,97579.16
2023-02-22T00:08:47.281Z,97586.44
2023-02-22T00:11:15.039Z,97583.03
2023-02-22T00:13:45.160Z,97580.81
2023-02-22T00:16:19.541Z,97590.28
2023-02-22T00:18:46.223Z,97579.44
2023-02-22T00:21:13.312Z,97580.34
2023-02-22T00:23:43.269Z,97574.75
2023-02-22T00:26:09.954Z,97577.53
2023-02-22T00:28:37.136Z,97571.69
2023-02-22T00:31:05.325Z,97573.28
2023-02-22T00:33:32.229Z,97576.94
2023-02-22T00:35:58.919Z,97581.97
2023-02-22T00:38:26.831Z,97580.72
2023-02-22T00:40:53.346Z,97583.91
2023-02-22T00:43:19.778Z,97576.66
2023-02-22T00:45:49.144Z,97581.03
2023-02-22T00:48:17.667Z,97578.09
2023-02-22T00:50:44.131Z,97577.97
2023-02-22T00:53:10.676Z,97578.09
2023-02-22T00:55:37.694Z,97584.59
2023-02-22T00:58:05.167Z,97583.13
2023-02-22T01:00:31.580Z,97581.50
2023-02-22T01:02:58.311Z,97583.44
2023-02-22T01:05:26.446Z,97581.88
2023-02-22T01:07:53.488Z,97577.06
2023-02-22T01:10:21.000Z,97578.50
2023-02-22T01:12:48.004Z,97585.78
2023-02-22T01:15:15.484Z,97580.50
2023-02-22T01:17:43.777Z,97588.25
2023-02-22T01:20:12.595Z,97584.50
2023-02-22T01:22:43.096Z,97575.84
2023-02-22T01:25:10.725Z,97586.44
2023-02-22T01:27:38.411Z,97589.84
2023-02-22T01:30:08.541Z,97585.34
2023-02-22T01:32:39.918Z,97580.22
2023-02-22T01:35:08.529Z,97590.56
2023-02-22T01:37:35.541Z,97579.81
2023-02-22T01:40:02.964Z,97576.53
2023-02-22T01:42:29.563Z,97578.38
2023-02-22T01:45:14.909Z,97585.06
2023-02-22T01:47:41.836Z,97581.09
2023-02-22T01:50:10.642Z,97584.50
2023-02-22T01:52:37.217Z,97576.63
2023-02-22T01:55:03.949Z,97573.84
2023-02-22T01:57:35.796Z,97577.94
2023-02-22T02:00:12.343Z,97581.22
2023-02-22T02:02:47.986Z,97577.53
2023-02-22T02:05:17.798Z,97580.44
2023-02-22T02:07:46.567Z,97573.69
2023-02-22T02:10:15.364Z,97568.94
2023-02-22T02:12:44.274Z,97570.56
2023-02-22T02:15:16.855Z,97570.16
2023-02-22T02:17:43.630Z,97566.53
2023-02-22T02:20:23.880Z,97564.88
2023-02-22T02:22:56.073Z,97573.97
2023-02-22T02:25:22.485Z,97571.31
2023-02-22T02:27:51.907Z,97574.88
2023-02-22T02:30:39.424Z,97575.22
2023-02-22T02:33:24.696Z,97577.38
2023-02-22T02:36:11.449Z,97573.97
2023-02-22T02:38:43.123Z,97571.97
2023-02-22T02:41:13.592Z,97574.69
2023-02-22T02:43:50.060Z,97573.63
2023-02-22T02:46:16.524Z,97569.72
2023-02-22T02:48:46.779Z,97577.81
2023-02-22T02:51:14.845Z,97576.59
2023-02-22T02:53:44.271Z,97568.09
2023-02-22T02:56:10.855Z,97570.09
2023-02-22T02:58:49.124Z,97564.16
2023-02-22T03:01:33.337Z,97564.88
2023-02-22T03:04:16.635Z,97557.84
2023-02-22T03:06:49.440Z,97557.31
2023-02-22T03:09:15.855Z,97560.84
2023-02-22T03:11:48.545Z,97557.84
2023-02-22T03:14:34.395Z,97563.16
2023-02-22T03:17:29.813Z,97570.91
2023-02-22T03:20:11.207Z,97564.69
2023-02-22T03:22:44.111Z,97568.69
2023-02-22T03:25:15.651Z,97561.72
2023-02-22T03:27:48.995Z,97570.53
2023-02-22T03:30:21.404Z,97571.00
2023-02-22T03:32:53.107Z,97570.09
2023-02-22T03:35:25.301Z,97570.63
2023-02-22T03:37:56.975Z,97571.41
2023-02-22T03:40:29.628Z,97578.25
2023-02-22T03:43:02.063Z,97568.66
2023-02-22T03:45:29.703Z,97577.38
2023-02-22T03:48:10.253Z,97576.50
2023-02-22T03:50:37.683Z,97578.56
2023-02-22T03:53:07.434Z,97577.59
2023-02-22T03:55:36.054Z,97578.56
2023-02-22T03:58:06.650Z,97576.94
2023-02-22T04:00:34.084Z,97591.47
2023-02-22T04:03:01.213Z,97581.97
2023-02-22T04:05:28.020Z,97592.50
2023-02-22T04:07:57.082Z,97587.19
2023-02-22T04:10:24.012Z,97580.16
2023-02-22T04:12:51.066Z,97581.75
2023-02-22T04:15:20.479Z,97584.84
2023-02-22T04:17:48.962Z,97584.19
2023-02-22T04:20:19.885Z,97581.81
2023-02-22T04:23:02.021Z,97579.25
2023-02-22T04:25:29.516Z,97582.47
2023-02-22T04:27:56.567Z,97577.59
2023-02-22T04:30:34.619Z,97580.13
2023-02-22T04:33:02.614Z,97575.25
2023-02-22T04:35:29.238Z,97572.47
2023-02-22T04:37:55.745Z,97574.69
2023-02-22T04:40:22.552Z,97568.97
2023-02-22T04:42:48.999Z,97562.09
2023-02-22T04:45:15.529Z,97572.72
2023-02-22T04:47:42.780Z,97568.25
2023-02-22T04:50:09.768Z,97570.47
2023-02-22T04:52:36.354Z,97564.44
2023-02-22T04:55:03.028Z,97563.69
2023-02-22T04:57:29.671Z,97570.38
2023-02-22T04:59:56.555Z,97567.63
2023-02-22T05:02:24.848Z,97571.25
2023-02-22T05:04:51.369Z,97566.97
2023-02-22T05:07:17.891Z,97570.63
2023-02-22T05:09:44.367Z,97561.28
2023-02-22T05:12:10.873Z,97566.97
2023-02-22T05:14:37.437Z,97560.94
2023-02-22T05:17:04.498Z,97560.84
2023-02-22T05:19:31.029Z,97557.84
2023-02-22T05:21:57.732Z,97557.44
2023-02-22T05:24:24.210Z,97560.72
2023-02-22T05:26:51.406Z,97559.97
2023-02-22T05:29:18.027Z,97561.47
2023-02-22T05:31:44.567Z,97555.72
2023-02-22T05:34:11.100Z,97557.44
2023-02-22T05:36:37.681Z,97558.59
2023-02-22T05:39:05.488Z,97563.50
2023-02-22T05:41:32.001Z,97559.56
2023-02-22T05:43:58.444Z,97560.59
2023-02-22T05:46:25.342Z,97568.69
2023-02-22T05:48:51.882Z,97566.78
2023-02-22T05:51:19.636Z,97560.84
2023-02-22T05:53:46.425Z,97573.56
2023-02-22T05:56:12.902Z,97563.50
2023-02-22T05:58:39.360Z,97565.41
2023-02-22T06:01:05.853Z,97570.38
2023-02-22T06:03:32.316Z,97568.50
2023-02-22T06:05:58.913Z,97573.38
2023-02-22T06:08:25.360Z,97577.09
2023-02-22T06:10:51.791Z,97575.94
2023-02-22T06:13:18.260Z,97576.50
2023-02-22T06:15:44.712Z,97579.03
2023-02-22T06:18:11.184Z,97575.53
2023-02-22T06:20:37.707Z,97582.25
2023-02-22T06:23:04.326Z,97581.28
2023-02-22T06:25:31.438Z,97587.53
2023-02-22T06:27:58.605Z,97583.69
2023-02-22T06:30:25.908Z,97590.16
2023-02-22T06:32:52.478Z,97598.34
2023-02-22T06:35:19.212Z,97601.56
2023-02-22T06:37:46.112Z,97606.66
2023-02-22T06:40:13.167Z,97603.88
2023-02-22T06:42:39.698Z,97609.91
2023-02-22T06:45:06.566Z,97611.88
2023-02-22T06:47:33.036Z,97617.91
2023-02-22T06:50:00.964Z,97618.66
2023-02-22T06:52:27.528Z,97620.19
2023-02-22T06:54:54.033Z,97621.19
2023-02-22T06:57:20.543Z,97625.28
2023-02-22T06:59:46.979Z,97632.56
2023-02-22T07:02:14.103Z,97622.06
2023-02-22T07:04:43.240Z,97625.44
2023-02-22T07:07:10.253Z,97623.44
2023-02-22T07:09:36.711Z,97617.31
2023-02-22T07:12:03.309Z,97624.94
2023-02-22T07:14:29.800Z,97620.06
2023-02-22T07:16:56.272Z,97624.34
2023-02-22T07:19:22.750Z,97618.41
2023-02-22T07:21:50.821Z,97618.78
2023-02-22T07:24:17.249Z,97615.91
2023-02-22T07:26:43.782Z,97617.97
2023-02-22T07:29:11.326Z,97624.31
2023-02-22T07:31:38.189Z,97612.13
2023-02-22T07:34:04.651Z,97612.75
2023-02-22T07:36:31.120Z,97613.31
2023-02-22T07:38:57.733Z,97615.50
2023-02-22T07:41:25.012Z,97612.78
2023-02-22T07:43:51.472Z,97615.47
2023-02-22T07:46:18.003Z,97613.78
2023-02-22T07:48:44.421Z,97611.63
2023-02-22T07:51:11.251Z,97613.97
2023-02-22T07:53:37.874Z,97611.72
2023-02-22T07:56:05.412Z,97603.59
2023-02-22T07:58:32.314Z,97612.03
2023-02-22T08:01:02.108Z,97613.09
2023-02-22T08:03:30.699Z,97610.94
2023-02-22T08:05:58.640Z,97608.38
2023-02-22T08:08:25.156Z,97603.81
2023-02-22T08:10:52.216Z,97604.84
2023-02-22T08:13:19.133Z,97603.81
2023-02-22T08:15:47.162Z,97607.00
2023-02-22T08:18:17.305Z,97606.34
2023-02-22T08:20:44.685Z,97607.53
2023-02-22T08:23:12.658Z,97602.53
2023-02-22T08:25:39.091Z,97596.38
2023-02-22T08:28:06.949Z,97596.88
2023-02-22T08:30:35.037Z,97597.56
2023-02-22T08:33:05.108Z,97600.22
2023-02-22T08:35:32.517Z,97599.53
2023-02-22T08:38:00.401Z,97590.78
2023-02-22T08:40:30.979Z,97593.81
2023-02-22T08:42:57.502Z,97589.25
2023-02-22T08:45:24.053Z,97594.59
2023-02-22T08:47:50.869Z,97599.34
2023-02-22T08:50:19.306Z,97598.81
2023-02-22T08:52:45.809Z,97596.34
2023-02-22T08:55:12.519Z,97587.38
2023-02-22T08:57:38.944Z,97589.31
2023-02-22T09:00:05.765Z,97586.13
2023-02-22T09:02:32.293Z,97593.53
2023-02-22T09:04:58.789Z,97588.06
2023-02-22T09:07:25.271Z,97591.00
2023-02-22T09:09:51.684Z,97596.66
2023-02-22T09:12:18.139Z,97589.69
2023-02-22T09:14:44.592Z,97585.72
2023-02-22T09:17:11.115Z,97587.22
2023-02-22T09:19:37.544Z,97582.66
2023-02-22T09:22:04.016Z,97582.81
2023-02-22T09:24:30.660Z,97580.53
2023-02-22T09:26:59.233Z,97585.38
2023-02-22T09:29:26.487Z,97579.81
2023-02-22T09:31:54.062Z,97575.19
2023-02-22T09:34:22.644Z,97570.69
2023-02-22T09:36:49.810Z,97567.31
2023-02-22T09:39:17.115Z,97564.00
2023-02-22T09:41:52.763Z,97569.66
2023-02-22T09:44:29.617Z,97566.28
2023-02-22T09:46:58.008Z,97556.53
2023-02-22T09:49:47.359Z,97562.34
2023-02-22T09:52:18.827Z,97570.44
2023-02-22T09:54:51.749Z,97571.69
2023-02-22T09:57:22.752Z,97558.81
2023-02-22T09:59:57.653Z,97562.31
2023-02-22T10:02:28.343Z,97561.78
2023-02-22T10:04:59.761Z,97559.59
2023-02-22T10:07:30.503Z,97559.34
2023-02-22T10:09:57.682Z,97551.94
2023-02-22T10:12:33.751Z,97557.81
2023-02-22T10:15:21.289Z,97542.66
2023-02-22T10:18:07.979Z,97540.03
2023-02-22T10:20:46.581Z,97543.75
2023-02-22T10:23:33.276Z,97544.44
2023-02-22T10:26:09.273Z,97533.28
2023-02-22T10:28:39.542Z,97538.56
2023-02-22T10:31:08.109Z,97533.31
2023-02-22T10:33:47.830Z,97527.63
2023-02-22T10:36:22.163Z,97525.53
2023-02-22T10:38:53.508Z,97528.84
2023-02-22T10:41:38.132Z,97524.59
2023-02-22T10:44:04.709Z,97514.22
2023-02-22T10:46:32.017Z,97513.72
2023-02-22T10:49:02.614Z,97512.13
2023-02-22T10:51:29.484Z,97509.16
2023-02-22T10:53:58.747Z,97505.16
2023-02-22T10:56:26.379Z,97509.72
2023-02-22T10:59:04.339Z,97508.91
2023-02-22T11:01:30.776Z,97503.69
2023-02-22T11:03:58.337Z,97503.88
2023-02-22T11:06:25.325Z,97496.59
2023-02-22T11:08:52.158Z,97489.81
2023-02-22T11:11:23.720Z,97478.44
2023-02-22T11:13:56.698Z,97473.31
2023-02-22T11:16:28.181Z,97474.31
2023-02-22T11:19:02.034Z,97466.63
2023-02-22T11:21:30.498Z,97458.38
2023-02-22T11:24:04.814Z,97459.19
2023-02-22T11:26:37.376Z,97449.16
2023-02-22T11:29:09.651Z,97448.00
2023-02-22T11:31:42.044Z,97446.84
2023-02-22T11:34:24.670Z,97442.34
2023-02-22T11:36:51.231Z,97436.91
2023-02-22T11:39:28.297Z,97430.50
2023-02-22T11:41:58.153Z,97431.53
2023-02-22T11:44:26.491Z,97426.81
2023-02-22T11:46:55.746Z,97414.25
2023-02-22T11:49:33.271Z,97410.69
2023-02-22T11:52:18.606Z,97409.69
2023-02-22T11:54:54.388Z,97403.16
2023-02-22T11:57:36.260Z,97397.00
2023-02-22T12:00:15.357Z,97396.03
2023-02-22T12:03:01.655Z,97393.81
2023-02-22T12:05:40.552Z,97393.09
2023-02-22T12:08:19.418Z,97388.94
2023-02-22T12:10:59.168Z,97391.16
2023-02-22T12:13:28.680Z,97391.56
2023-02-22T12:16:02.264Z,97384.16
2023-02-22T12:18:34.774Z,97378.34
2023-02-22T12:21:03.145Z,97377.25
2023-02-22T12:23:44.735Z,97378.69
2023-02-22T12:26:14.520Z,97370.59
2023-02-22T12:28:44.099Z,97365.28
2023-02-22T12:31:20.218Z,97365.25
2023-02-22T12:33:50.161Z,97360.69
2023-02-22T12:36:19.269Z,97363.00
2023-02-22T12:38:49.144Z,97358.00
2023-02-22T12:41:22.539Z,97347.47
2023-02-22T12:43:52.350Z,97352.63
2023-02-22T12:46:27.045Z,97342.63
2023-02-22T12:49:13.929Z,97345.00
2023-02-22T12:51:43.456Z,97339.44
2023-02-22T12:54:13.717Z,97331.19
2023-02-22T12:56:49.239Z,97329.69
2023-02-22T12:59:19.396Z,97323.09
2023-02-22T13:01:50.763Z,97329.00
2023-02-22T13:04:20.928Z,97323.63
2023-02-22T13:07:06.878Z,97320.44
2023-02-22T13:09:33.331Z,97309.31
2023-02-22T13:12:06.044Z,97314.19
2023-02-22T13:14:32.539Z,97308.69
2023-02-22T13:17:31.244Z,97306.97
2023-02-22T13:20:10.058Z,97304.50
2023-02-22T13:23:02.915Z,97305.66
2023-02-22T13:25:38.190Z,97307.56
2023-02-22T13:28:07.421Z,97303.53
2023-02-22T13:30:33.879Z,97300.47
2023-02-22T13:33:03.277Z,97300.16
2023-02-22T13:35:48.645Z,97291.19
2023-02-22T13:38:15.164Z,97297.88
2023-02-22T13:40:47.643Z,97293.56
2023-02-22T13:43:26.294Z,97298.00
2023-02-22T13:45:52.728Z,97292.66
2023-02-22T13:48:31.473Z,97296.84
2023-02-22T13:51:16.476Z,97293.00
2023-02-22T13:53:43.842Z,97288.88
2023-02-22T13:56:11.717Z,97288.06
2023-02-22T13:58:55.014Z,97287.53
2023-02-22T14:01:40.417Z,97278.38
2023-02-22T14:04:25.567Z,97283.34
2023-02-22T14:06:52.066Z,97276.88
2023-02-22T14:09:39.104Z,97281.47
2023-02-22T14:12:05.853Z,97282.28
2023-02-22T14:14:32.284Z,97276.16
2023-02-22T14:17:22.154Z,97269.50
2023-02-22T14:20:00.311Z,97267.84
2023-02-22T14:22:29.028Z,97275.59
2023-02-22T14:24:57.060Z,97266.78
2023-02-22T14:27:23.542Z,97269.31
2023-02-22T14:29:54.901Z,97265.75
2023-02-22T14:32:30.486Z,97270.56
2023-02-22T14:34:58.663Z,97273.72
2023-02-22T14:37:30.524Z,97264.06
2023-02-22T14:40:15.506Z,97265.56
2023-02-22T14:42:44.384Z,97264.50
2023-02-22T14:45:17.101Z,97262.94
2023-02-22T14:47:50.362Z,97263.66
2023-02-22T14:50:16.803Z,97266.03
2023-02-22T14:52:46.445Z,97262.00
2023-02-22T14:55:33.373Z,97266.00
2023-02-22T14:58:09.701Z,97264.22
2023-02-22T15:00:45.849Z,97260.22
2023-02-22T15:03:38.462Z,97262.03
2023-02-22T15:06:05.825Z,97260.03
2023-02-22T15:08:34.184Z,97259.13
2023-02-22T15:11:02.295Z,97261.22
2023-02-22T15:13:32.929Z,97270.72
2023-02-22T15:16:02.233Z,97266.53
2023-02-22T15:18:43.082Z,97265.78
2023-02-22T15:21:17.487Z,97257.59
2023-02-22T15:23:45.796Z,97261.81
2023-02-22T15:26:20.441Z,97260.13
2023-02-22T15:28:47.523Z,97256.06
2023-02-22T15:31:14.814Z,97250.72
2023-02-22T15:33:41.298Z,97256.09
2023-02-22T15:36:15.853Z,97257.28
2023-02-22T15:38:47.135Z,97255.88
2023-02-22T15:41:20.581Z,97257.47
2023-02-22T15:43:57.355Z,97258.88
2023-02-22T15:46:23.927Z,97255.72
2023-02-22T15:49:19.386Z,97253.47
2023-02-22T15:51:49.127Z,97253.00
2023-02-22T15:54:26.517Z,97248.47
2023-02-22T15:56:56.940Z,97253.25
2023-02-22T15:59:29.545Z,97249.56
2023-02-22T16:01:57.173Z,97253.41
2023-02-22T16:04:25.950Z,97247.28
2023-02-22T16:06:54.365Z,97247.97
2023-02-22T16:09:23.133Z,97252.47
2023-02-22T16:11:49.863Z,97246.34
2023-02-22T16:14:27.536Z,97254.34
2023-02-22T16:17:15.789Z,97257.88
2023-02-22T16:19:45.002Z,97248.38
2023-02-22T16:22:26.867Z,97253.03
2023-02-22T16:24:54.514Z,97251.44
2023-02-22T16:27:22.830Z,97259.03
2023-02-22T16:30:25.468Z,97258.25
2023-02-22T16:32:53.567Z,97257.94
2023-02-22T16:35:20.269Z,97265.69
2023-02-22T16:37:51.375Z,97261.97
2023-02-22T16:40:24.493Z,97261.66
2023-02-22T16:42:51.579Z,97265.69
2023-02-22T16:45:21.912Z,97266.16
2023-02-22T16:47:52.635Z,97269.00
2023-02-22T16:50:19.788Z,97273.72
2023-02-22T16:52:46.291Z,97276.38
2023-02-22T16:55:14.245Z,97277.69
2023-02-22T16:57:41.662Z,97270.00
2023-02-22T17:00:13.039Z,97271.63
2023-02-22T17:02:40.003Z,97274.09
2023-02-22T17:05:07.908Z,97272.72
2023-02-22T17:07:34.455Z,97272.59
2023-02-22T17:10:00.954Z,97279.22
2023-02-22T17:12:28.969Z,97280.47
2023-02-22T17:14:55.777Z,97277.91
2023-02-22T17:17:22.248Z,97286.38
2023-02-22T17:19:48.725Z,97284.53
2023-02-22T17:22:22.186Z,97283.63
2023-02-22T17:24:48.840Z,97287.03
2023-02-22T17:27:15.395Z,97283.25
2023-02-22T17:29:44.057Z,97289.56
2023-02-22T17:32:10.853Z,97284.78
2023-02-22T17:34:37.329Z,97280.34
2023-02-22T17:37:04.825Z,97286.16
2023-02-22T17:39:31.320Z,97280.44
2023-02-22T17:41:57.836Z,97287.69
2023-02-22T17:44:25.178Z,97280.34
2023-02-22T17:46:52.874Z,97278.00
2023-02-22T17:49:19.380Z,97285.25
2023-02-22T17:51:49.466Z,97282.81
2023-02-22T17:54:17.489Z,97276.59
2023-02-22T17:56:43.987Z,97282.19
2023-02-22T17:59:10.655Z,97280.50
2023-02-22T18:01:37.469Z,97274.16
2023-02-22T18:04:05.080Z,97273.84
2023-02-22T18:06:32.737Z,97275.22
2023-02-22T18:09:00.109Z,97272.84
2023-02-22T18:11:27.741Z,97273.38
2023-02-22T18:13:55.797Z,97265.16
2023-02-22T18:16:22.687Z,97268.72
2023-02-22T18:18:49.762Z,97265.78
2023-02-22T18:21:16.318Z,97266.16
2023-02-22T18:23:44.794Z,97282.03
2023-02-22T18:26:21.678Z,97269.34
2023-02-22T18:28:51.531Z,97274.59
2023-02-22T18:31:18.925Z,97270.28
2023-02-22T18:33:46.695Z,97269.38
2023-02-22T18:36:14.265Z,97267.38
2023-02-22T18:38:44.879Z,97270.75
2023-02-22T18:41:12.745Z,97271.63
2023-02-22T18:43:39.375Z,97275.00
2023-02-22T18:46:07.158Z,97275.66
2023-02-22T18:48:33.889Z,97266.66
2023-02-22T18:51:01.544Z,97274.59
2023-02-22T18:53:31.288Z,97270.34
2023-02-22T18:56:02.664Z,97263.88
2023-02-22T18:58:32.712Z,97274.03
2023-02-22T19:01:00.127Z,97264.81
2023-02-22T19:03:27.120Z,97269.28
2023-02-22T19:05:54.714Z,97267.13
2023-02-22T19:08:21.177Z,97265.72
2023-02-22T19:10:50.599Z,97267.75
2023-02-22T19:13:17.446Z,97273.66
2023-02-22T19:15:43.896Z,97269.00
2023-02-22T19:18:10.476Z,97270.16
2023-02-22T19:20:36.906Z,97269.03
2023-02-22T19:23:03.350Z,97270.44
2023-02-22T19:25:29.902Z,97269.31
2023-02-22T19:27:56.838Z,97270.47
2023-02-22T19:30:24.771Z,97279.47
2023-02-22T19:32:51.504Z,97271.31
2023-02-22T19:35:27.112Z,97274.94
2023-02-22T19:37:54.750Z,97273.00
2023-02-22T19:40:21.966Z,97272.41
2023-02-22T19:42:49.136Z,97280.31
2023-02-22T19:45:15.631Z,97276.09
2023-02-22T19:47:42.282Z,97284.94
2023-02-22T19:50:08.967Z,97285.81
2023-02-22T19:52:35.537Z,97281.81
2023-02-22T19:55:02.008Z,97285.91
2023-02-22T19:57:29.842Z,97281.66
2023-02-22T19:59:56.324Z,97285.91
2023-02-22T20:02:27.221Z,97290.09
2023-02-22T20:04:55.216Z,97283.06
2023-02-22T20:07:21.656Z,97292.19
2023-02-22T20:09:49.725Z,97288.56
2023-02-22T20:12:16.347Z,97290.66
2023-02-22T20:14:42.874Z,97291.19
2023-02-22T20:17:10.246Z,97297.72
2023-02-22T20:19:37.634Z,97284.88
2023-02-22T20:22:04.216Z,97287.56
2023-02-22T20:24:30.648Z,97289.19
2023-02-22T20:26:58.271Z,97293.00
2023-02-22T20:29:29.553Z,97289.06
2023-02-22T20:31:57.791Z,97286.75
2023-02-22T20:34:26.442Z,97290.66
2023-02-22T20:36:53.355Z,97294.59
2023-02-22T20:39:19.815Z,97287.31
2023-02-22T20:41:46.487Z,97288.19
2023-02-22T20:44:13.953Z,97292.91
2023-02-22T20:46:40.693Z,97288.75
2023-02-22T20:49:08.282Z,97297.78
2023-02-22T20:51:35.351Z,97282.88
2023-02-22T20:54:01.943Z,97292.75
2023-02-22T20:56:29.766Z,97298.78
2023-02-22T20:58:56.849Z,97308.41
2023-02-22T21:01:23.561Z,97299.41
2023-02-22T21:03:50.192Z,97306.13
2023-02-22T21:06:18.072Z,97309.09
2023-02-22T21:08:45.516Z,97301.75
2023-02-22T21:11:13.424Z,97306.56
2023-02-22T21:13:40.096Z,97310.03
2023-02-22T21:16:07.401Z,97306.72
2023-02-22T21:18:33.871Z,97304.53
2023-02-22T21:21:10.042Z,97301.03
2023-02-22T21:23:37.268Z,97292.97
2023-02-22T21:26:03.850Z,97291.44
2023-02-22T21:28:49.887Z,97291.25
2023-02-22T21:31:17.360Z,97293.47
2023-02-22T21:33:44.130Z,97288.00
2023-02-22T21:36:14.752Z,97287.59
2023-02-22T21:38:42.252Z,97290.59
2023-02-22T21:41:15.606Z,97284.06
2023-02-22T21:43:48.693Z,97287.44
2023-02-22T21:46:15.298Z,97278.88
2023-02-22T21:48:45.052Z,97282.66
2023-02-22T21:51:15.523Z,97281.03
2023-02-22T21:53:46.072Z,97281.22
2023-02-22T21:56:15.066Z,97279.00
2023-02-22T21:58:44.981Z,97279.78
2023-02-22T22:01:17.127Z,97279.59
2023-02-22T22:03:44.821Z,97280.53
2023-02-22T22:06:11.710Z,97280.81
2023-02-22T22:08:40.084Z,97280.41
2023-02-22T22:11:10.524Z,97276.16
2023-02-22T22:13:40.347Z,97275.81
2023-02-22T22:16:08.390Z,97267.34
2023-02-22T22:18:36.292Z,97270.75
2023-02-22T22:21:16.185Z,97272.25
2023-02-22T22:23:45.437Z,97272.75
2023-02-22T22:26:11.958Z,97268.94
2023-02-22T22:28:39.762Z,97269.72
2023-02-22T22:31:07.246Z,97265.91
2023-02-22T22:33:34.575Z,97273.03
2023-02-22T22:36:01.118Z,97266.66
2023-02-22T22:38:28.982Z,97265.75
2023-02-22T22:41:01.725Z,97271.81
2023-02-22T22:43:29.370Z,97269.13
2023-02-22T22:45:58.404Z,97271.81
2023-02-22T22:48:25.135Z,97269.16
2023-02-22T22:51:06.416Z,97267.69
2023-02-22T22:53:33.656Z,97266.22
2023-02-22T22:56:03.780Z,97260.69
2023-02-22T22:58:33.986Z,97263.91
2023-02-22T23:01:05.839Z,97265.16
2023-02-22T23:03:36.924Z,97267.34
2023-02-22T23:06:04.494Z,97265.66
2023-02-22T23:08:42.921Z,97270.25
2023-02-22T23:11:10.597Z,97272.16
2023-02-22T23:13:38.004Z,97258.09
2023-02-22T23:16:07.824Z,97261.75
2023-02-22T23:18:34.410Z,97268.81
2023-02-22T23:21:05.296Z,97255.69
2023-02-22T23:23:31.752Z,97264.81
2023-02-22T23:26:11.324Z,97270.16
2023-02-22T23:28:38.812Z,97269.03
2023-02-22T23:31:13.979Z,97260.56
2023-02-22T23:33:41.492Z,97262.88
2023-02-22T23:36:08.663Z,97257.19
2023-02-22T23:38:35.111Z,97259.88
2023-02-22T23:41:02.787Z,97260.09
2023-02-22T23:43:32.527Z,97260.84
2023-02-22T23:46:10.657Z,97253.31
2023-02-22T23:48:43.081Z,97257.91
2023-02-22T23:51:09.858Z,97257.44
2023-02-22T23:53:38.055Z,97255.00
2023-02-22T23:56:13.065Z,97252.56
2023-02-22T23:58:40.388Z,97247.03
